Time;durP1;ratioP1;P1;durP2;ratioP2;P2;SDS_P1;SDS_P2;PMS_P1;PMS_P2;Temp;Humidity;BMP_temperature;BMP_pressure;BME280_temperature;BME280_humidity;BME280_pressure;Samples;Min_cycle;Max_cycle;Signal;HPM_P1;HPM_P2
2022/08/31 00:04:52;;;;;;;2.70;2.30;;;;;;;;;;5030413;28;20473;-72
2022/08/31 00:07:19;;;;;;;5.30;2.67;;;;;;;;;;5030432;28;20505;-72
2022/08/31 00:09:46;;;;;;;2.93;2.30;;;;;;;;;;5030549;28;20943;-72
2022/08/31 00:12:15;;;;;;;2.80;2.43;;;;;;;;;;5029978;28;20542;-72
2022/08/31 00:14:42;;;;;;;3.63;2.73;;;;;;;;;;5030392;28;20950;-72
2022/08/31 00:17:09;;;;;;;2.60;2.10;;;;;;;;;;5029636;28;20459;-72
2022/08/31 00:19:36;;;;;;;3.27;2.57;;;;;;;;;;5030254;28;20455;-73
2022/08/31 00:22:04;;;;;;;3.63;2.67;;;;;;;;;;5017013;28;20547;-72
2022/08/31 00:24:32;;;;;;;2.93;2.53;;;;;;;;;;5044653;28;20485;-72
2022/08/31 00:26:59;;;;;;;2.90;2.40;;;;;;;;;;5069514;28;20460;-72
2022/08/31 00:29:28;;;;;;;5.77;2.47;;;;;;;;;;5070187;28;20452;-72
2022/08/31 00:31:55;;;;;;;3.70;2.90;;;;;;;;;;5069646;28;20941;-72
2022/08/31 00:34:25;;;;;;;2.77;2.10;;;;;;;;;;5070232;28;20883;-72
2022/08/31 00:36:52;;;;;;;3.57;2.67;;;;;;;;;;5069127;28;20481;-70
2022/08/31 00:39:21;;;;;;;2.93;2.67;;;;;;;;;;5069809;28;20450;-69
2022/08/31 00:41:48;;;;;;;3.43;2.70;;;;;;;;;;5070215;28;20813;-69
2022/08/31 00:44:15;;;;;;;3.13;2.80;;;;;;;;;;5069823;28;20445;-69
2022/08/31 00:46:45;;;;;;;3.80;2.50;;;;;;;;;;5069401;28;21280;-69
2022/08/31 00:49:14;;;;;;;6.10;3.50;;;;;;;;;;5069547;28;20805;-69
2022/08/31 00:51:42;;;;;;;3.00;2.70;;;;;;;;;;5070000;28;20448;-69
2022/08/31 00:54:11;;;;;;;5.10;3.30;;;;;;;;;;5069467;28;20462;-69
2022/08/31 00:56:39;;;;;;;5.60;3.50;;;;;;;;;;5069504;28;20989;-69
2022/08/31 00:59:07;;;;;;;4.57;3.43;;;;;;;;;;5069369;28;20467;-70
2022/08/31 01:01:34;;;;;;;4.17;2.80;;;;;;;;;;5069468;28;20937;-69
2022/08/31 01:04:02;;;;;;;4.17;2.87;;;;;;;;;;5069384;28;20533;-70
2022/08/31 01:06:30;;;;;;;5.93;4.27;;;;;;;;;;5069546;28;20544;-70
2022/08/31 01:08:58;;;;;;;4.30;3.40;;;;;;;;;;5069091;28;20937;-68
2022/08/31 01:11:26;;;;;;;3.53;3.20;;;;;;;;;;5069602;28;20532;-67
2022/08/31 01:13:53;;;;;;;4.53;3.27;;;;;;;;;;5069426;28;20799;-66
2022/08/31 01:16:22;;;;;;;4.50;3.67;;;;;;;;;;5069408;28;20486;-67
2022/08/31 01:18:52;;;;;;;8.10;3.97;;;;;;;;;;5069131;28;20445;-67
2022/08/31 01:21:26;;;;;;;4.50;3.73;;;;;;;;;;5069679;28;20450;-67
2022/08/31 01:23:55;;;;;;;7.43;4.77;;;;;;;;;;5056900;28;20803;-67
2022/08/31 01:26:24;;;;;;;7.00;4.70;;;;;;;;;;5072953;28;20465;-67
2022/08/31 01:28:51;;;;;;;5.63;3.83;;;;;;;;;;5073155;28;20450;-66
2022/08/31 01:31:20;;;;;;;5.60;4.43;;;;;;;;;;5073427;28;20448;-67
2022/08/31 01:33:48;;;;;;;7.10;4.20;;;;;;;;;;5073252;28;20445;-67
2022/08/31 01:36:16;;;;;;;4.63;4.17;;;;;;;;;;5072740;28;20530;-67
2022/08/31 01:38:44;;;;;;;5.73;3.87;;;;;;;;;;5073058;28;20461;-67
2022/08/31 01:41:12;;;;;;;7.87;4.13;;;;;;;;;;5072714;28;20549;-67
2022/08/31 01:43:39;;;;;;;6.40;4.30;;;;;;;;;;5072906;28;20955;-67
2022/08/31 01:46:08;;;;;;;5.53;4.63;;;;;;;;;;5072408;28;20456;-67
2022/08/31 01:48:35;;;;;;;7.70;4.90;;;;;;;;;;5072841;28;20453;-67
2022/08/31 01:51:03;;;;;;;6.43;4.67;;;;;;;;;;5072471;28;20825;-66
2022/08/31 01:53:30;;;;;;;6.73;5.40;;;;;;;;;;5072790;28;20832;-66
2022/08/31 01:55:57;;;;;;;5.30;4.57;;;;;;;;;;5072102;28;20491;-66
2022/08/31 01:58:26;;;;;;;6.97;5.07;;;;;;;;;;5072400;28;21018;-66
2022/08/31 02:00:53;;;;;;;9.13;5.87;;;;;;;;;;5072366;28;20544;-66
2022/08/31 02:03:20;;;;;;;5.23;4.07;;;;;;;;;;5072512;28;20450;-66
2022/08/31 02:05:47;;;;;;;7.53;4.60;;;;;;;;;;5072512;28;20917;-66
2022/08/31 02:08:15;;;;;;;6.70;4.50;;;;;;;;;;5072482;28;20545;-67
2022/08/31 02:10:43;;;;;;;6.10;5.07;;;;;;;;;;5072428;28;20460;-66
2022/08/31 02:13:10;;;;;;;7.97;5.73;;;;;;;;;;5072336;28;20544;-66
2022/08/31 02:15:39;;;;;;;6.50;5.23;;;;;;;;;;5072385;28;20492;-66
2022/08/31 02:18:06;;;;;;;6.07;4.47;;;;;;;;;;5071519;28;20536;-66
2022/08/31 02:20:33;;;;;;;6.40;5.23;;;;;;;;;;5072217;28;20810;-67
2022/08/31 02:23:02;;;;;;;6.30;4.23;;;;;;;;;;5072241;28;20532;-66
2022/08/31 02:25:29;;;;;;;5.33;4.67;;;;;;;;;;5072162;28;20485;-66
2022/08/31 02:27:56;;;;;;;7.83;5.07;;;;;;;;;;5071420;28;20857;-66
2022/08/31 02:30:24;;;;;;;6.87;4.60;;;;;;;;;;5072205;28;20501;-66
2022/08/31 02:32:52;;;;;;;6.57;4.93;;;;;;;;;;5071580;28;20453;-66
2022/08/31 02:35:19;;;;;;;5.50;4.17;;;;;;;;;;5071613;28;20952;-66
2022/08/31 02:37:47;;;;;;;5.67;5.10;;;;;;;;;;5071696;28;20969;-66
2022/08/31 02:40:14;;;;;;;6.57;5.83;;;;;;;;;;5072056;28;20454;-67
2022/08/31 02:42:41;;;;;;;8.00;5.07;;;;;;;;;;5071844;28;20474;-66
2022/08/31 02:45:09;;;;;;;5.47;4.90;;;;;;;;;;5071649;28;20703;-66
2022/08/31 02:47:36;;;;;;;9.70;6.10;;;;;;;;;;5071230;28;20445;-66
2022/08/31 02:50:05;;;;;;;7.20;4.50;;;;;;;;;;5071440;28;20481;-67
2022/08/31 02:52:32;;;;;;;9.33;5.20;;;;;;;;;;5071679;28;20453;-66
2022/08/31 02:54:59;;;;;;;7.10;5.10;;;;;;;;;;5071310;28;20548;-66
2022/08/31 02:57:26;;;;;;;7.80;5.17;;;;;;;;;;5071289;28;20477;-66
2022/08/31 02:59:54;;;;;;;4.10;3.53;;;;;;;;;;5071167;28;20454;-66
2022/08/31 03:02:22;;;;;;;9.87;5.00;;;;;;;;;;5071639;28;20450;-67
2022/08/31 03:04:49;;;;;;;5.70;4.83;;;;;;;;;;5071450;28;20521;-67
2022/08/31 03:07:18;;;;;;;6.73;4.30;;;;;;;;;;5071035;28;20449;-66
2022/08/31 03:09:46;;;;;;;5.67;4.77;;;;;;;;;;5071523;28;20480;-66
2022/08/31 03:12:13;;;;;;;10.40;5.20;;;;;;;;;;5070875;28;20531;-66
2022/08/31 03:14:40;;;;;;;5.80;4.40;;;;;;;;;;5071259;28;20925;-67
2022/08/31 03:17:07;;;;;;;5.57;4.27;;;;;;;;;;5070572;28;20485;-66
2022/08/31 03:19:34;;;;;;;4.73;4.10;;;;;;;;;;5071163;28;20966;-67
2022/08/31 03:22:02;;;;;;;6.00;4.60;;;;;;;;;;5070853;28;20450;-66
2022/08/31 03:24:30;;;;;;;4.87;3.80;;;;;;;;;;5071062;28;20765;-66
2022/08/31 03:26:57;;;;;;;5.27;4.43;;;;;;;;;;5070071;28;20460;-66
2022/08/31 03:29:24;;;;;;;5.60;4.00;;;;;;;;;;5071286;28;20561;-66
2022/08/31 03:31:52;;;;;;;5.13;4.20;;;;;;;;;;5057670;28;20490;-66
2022/08/31 03:34:19;;;;;;;6.10;4.17;;;;;;;;;;5070826;28;20457;-66
2022/08/31 03:36:46;;;;;;;7.63;4.40;;;;;;;;;;5070807;28;20477;-66
2022/08/31 03:39:13;;;;;;;6.60;4.67;;;;;;;;;;5071116;28;20485;-67
2022/08/31 03:41:42;;;;;;;8.20;4.30;;;;;;;;;;5070685;28;20441;-67
2022/08/31 03:44:09;;;;;;;5.77;4.47;;;;;;;;;;5070287;28;21012;-66
2022/08/31 03:46:36;;;;;;;5.13;3.63;;;;;;;;;;5069449;28;20454;-66
2022/08/31 03:49:06;;;;;;;5.53;4.30;;;;;;;;;;5070282;28;20453;-67
2022/08/31 03:51:33;;;;;;;4.87;3.40;;;;;;;;;;5070654;28;20458;-67
2022/08/31 03:54:00;;;;;;;8.03;4.63;;;;;;;;;;5070115;28;20461;-67
2022/08/31 03:56:27;;;;;;;4.50;4.10;;;;;;;;;;5070098;28;20481;-67
2022/08/31 03:58:56;;;;;;;6.83;4.43;;;;;;;;;;5069948;28;20456;-68
2022/08/31 04:01:23;;;;;;;6.80;4.70;;;;;;;;;;5070328;28;20454;-67
2022/08/31 04:03:50;;;;;;;6.23;4.50;;;;;;;;;;5070286;28;20446;-66
2022/08/31 04:06:17;;;;;;;6.00;5.03;;;;;;;;;;5070457;28;20457;-67
2022/08/31 04:08:44;;;;;;;5.77;3.90;;;;;;;;;;5070744;28;20861;-67
2022/08/31 04:11:13;;;;;;;5.57;4.33;;;;;;;;;;5070427;28;20450;-66
2022/08/31 04:13:41;;;;;;;5.10;4.10;;;;;;;;;;5070642;28;20448;-67
2022/08/31 04:16:10;;;;;;;4.90;4.43;;;;;;;;;;5069877;28;20884;-66
2022/08/31 04:18:38;;;;;;;5.67;4.63;;;;;;;;;;5070289;28;20955;-67
2022/08/31 04:21:05;;;;;;;4.80;4.00;;;;;;;;;;5070260;28;20441;-67
2022/08/31 04:23:32;;;;;;;6.77;4.90;;;;;;;;;;5070591;28;20461;-67
2022/08/31 04:26:00;;;;;;;6.27;4.47;;;;;;;;;;5069363;28;20476;-67
2022/08/31 04:28:27;;;;;;;9.20;5.27;;;;;;;;;;5070634;28;20487;-67
2022/08/31 04:30:54;;;;;;;6.63;4.53;;;;;;;;;;5069945;28;20449;-66
2022/08/31 04:33:22;;;;;;;7.33;4.77;;;;;;;;;;5070173;28;20456;-66
2022/08/31 04:35:49;;;;;;;10.43;4.90;;;;;;;;;;5069437;28;20454;-66
2022/08/31 04:38:16;;;;;;;7.57;5.50;;;;;;;;;;5070609;28;20487;-66
2022/08/31 04:40:44;;;;;;;5.90;4.57;;;;;;;;;;5070308;28;20453;-67
2022/08/31 04:43:11;;;;;;;8.20;4.70;;;;;;;;;;5070261;28;20445;-66
2022/08/31 04:45:42;;;;;;;8.60;5.33;;;;;;;;;;5070298;28;20569;-67
2022/08/31 04:48:09;;;;;;;9.77;5.50;;;;;;;;;;5069616;28;20532;-66
2022/08/31 04:50:37;;;;;;;7.27;4.70;;;25.10;1.00;;;;;;5070299;28;20526;-66
2022/08/31 04:53:04;;;;;;;5.90;4.80;;;17.80;99.90;;;;;;5070204;28;20446;-66
2022/08/31 04:55:31;;;;;;;4.97;4.40;;;17.60;99.90;;;;;;5069734;28;21036;-67
2022/08/31 04:57:58;;;;;;;5.57;4.90;;;17.70;99.90;;;;;;5070389;28;20486;-66
2022/08/31 05:00:25;;;;;;;5.17;4.60;;;17.60;99.90;;;;;;5073365;28;20450;-67
2022/08/31 05:02:53;;;;;;;6.30;4.90;;;17.70;99.90;;;;;;5071693;28;20441;-67
2022/08/31 05:05:20;;;;;;;6.50;4.43;;;;;;;;;;5070857;28;20449;-67
2022/08/31 05:07:49;;;;;;;5.03;3.93;;;;;;;;;;5073883;28;20957;-67
2022/08/31 05:10:16;;;;;;;7.27;5.10;;;;;;;;;;5073874;28;20528;-67
2022/08/31 05:12:44;;;;;;;6.80;4.80;;;;;;;;;;5073962;28;20446;-67
2022/08/31 05:15:11;;;;;;;10.00;5.50;;;;;;;;;;5073629;28;20453;-68
2022/08/31 05:17:38;;;;;;;8.07;4.60;;;;;;;;;;5073082;28;20485;-68
2022/08/31 05:20:06;;;;;;;8.97;5.30;;;;;;;;;;5073515;28;20460;-67
2022/08/31 05:22:33;;;;;;;6.57;4.60;;;;;;;;;;5073434;28;20441;-66
2022/08/31 05:25:05;;;;;;;6.03;4.70;;;;;;;;;;5073181;28;21028;-66
2022/08/31 05:27:33;;;;;;;8.90;5.60;;;;;;;;;;5073472;28;20454;-66
2022/08/31 05:30:00;;;;;;;8.83;5.13;;;;;;;;;;5072997;28;20450;-69
2022/08/31 05:32:27;;;;;;;6.50;5.00;;;;;;;;;;5073433;28;20464;-68
2022/08/31 05:34:54;;;;;;;6.50;4.87;;;;;;;;;;5072375;28;20819;-66
2022/08/31 05:37:21;;;;;;;7.40;4.97;;;;;;;;;;5072869;28;20487;-67
2022/08/31 05:39:48;;;;;;;6.23;4.17;;;;;;;;;;5072102;28;20456;-67
2022/08/31 05:42:19;;;;;;;6.70;5.07;;;;;;;;;;5072717;28;20815;-68
2022/08/31 05:44:47;;;;;;;7.70;4.73;;;;;;;;;;5060225;28;20445;-68
2022/08/31 05:47:14;;;;;;;6.17;5.03;;;;;;;;;;5073107;28;20457;-68
2022/08/31 05:49:42;;;;;;;4.37;3.50;;;;;;;;;;5073268;28;20452;-67
2022/08/31 05:52:10;;;;;;;8.73;4.30;;;;;;;;;;5072997;28;20464;-67
2022/08/31 05:54:38;;;;;;;4.87;4.37;;;;;;;;;;5072735;28;20457;-67
2022/08/31 05:57:06;;;;;;;3.83;3.40;;;;;;;;;;5072551;28;20477;-67
2022/08/31 05:59:35;;;;;;;4.80;3.60;;;;;;;;;;5073217;28;20480;-67
2022/08/31 06:02:03;;;;;;;6.70;4.33;;;;;;;;;;5072583;28;20438;-67
2022/08/31 06:04:30;;;;;;;5.37;4.33;;;;;;;;;;5072722;28;20485;-67
2022/08/31 06:06:58;;;;;;;4.67;4.17;;;;;;;;;;5072492;28;20496;-68
2022/08/31 06:09:25;;;;;;;4.63;4.10;;;17.90;99.90;;;;;;5072309;28;20537;-68
2022/08/31 06:11:52;;;;;;;5.57;4.30;;;18.30;99.90;;;;;;5072569;28;20450;-67
2022/08/31 06:14:21;;;;;;;6.03;4.90;;;18.20;99.90;;;;;;5072688;28;20448;-68
2022/08/31 06:16:49;;;;;;;8.77;4.20;;;18.30;99.90;;;;;;5072699;28;20545;-67
2022/08/31 06:19:16;;;;;;;5.90;4.27;;;18.20;99.90;;;;;;5072789;28;20450;-67
2022/08/31 06:21:49;;;;;;;5.90;4.60;;;18.10;99.90;;;;;;5072741;28;20459;-67
2022/08/31 06:24:16;;;;;;;6.47;4.30;;;18.00;99.90;;;;;;5072241;28;20477;-67
2022/08/31 06:26:54;;;;;;;6.77;4.47;;;18.00;99.90;;;;;;5072711;28;20449;-68
2022/08/31 06:29:21;;;;;;;5.60;4.77;;;18.00;99.90;;;;;;5072728;28;20449;-67
2022/08/31 06:31:50;;;;;;;6.67;4.87;;;18.00;99.90;;;;;;5072572;28;20808;-67
2022/08/31 06:34:18;;;;;;;6.60;4.70;;;18.00;99.90;;;;;;5072076;28;20468;-68
2022/08/31 06:36:47;;;;;;;3.87;3.47;;;17.90;99.90;;;;;;5072383;28;20929;-67
2022/08/31 06:39:14;;;;;;;6.50;4.40;;;17.80;99.90;;;;;;5072485;28;20462;-67
2022/08/31 06:41:41;;;;;;;6.77;4.87;;;17.80;99.90;;;;;;5072313;28;20464;-68
2022/08/31 06:44:11;;;;;;;5.90;4.77;;;17.90;99.90;;;;;;5071369;28;21008;-68
2022/08/31 06:46:39;;;;;;;5.23;4.60;;;18.00;99.90;;;;;;5072071;28;20454;-68
2022/08/31 06:49:08;;;;;;;5.73;4.50;;;18.10;99.90;;;;;;5071753;28;20798;-68
2022/08/31 06:51:36;;;;;;;7.80;5.20;;;18.20;99.90;;;;;;5071925;28;20545;-68
2022/08/31 06:54:05;;;;;;;4.60;4.03;;;18.20;99.90;;;;;;5071002;28;20457;-68
2022/08/31 06:56:33;;;;;;;6.63;5.10;;;18.30;99.90;;;;;;5071991;28;20536;-68
2022/08/31 06:59:00;;;;;;;6.80;4.93;;;18.40;99.90;;;;;;5071549;28;20826;-68
2022/08/31 07:01:29;;;;;;;5.90;4.33;;;18.40;99.90;;;;;;5071986;28;20450;-68
2022/08/31 07:03:58;;;;;;;7.93;4.57;;;18.30;99.90;;;;;;5070778;28;20446;-68
2022/08/31 07:06:28;;;;;;;7.27;3.93;;;18.20;99.90;;;;;;5072342;28;20540;-68
2022/08/31 07:08:58;;;;;;;6.23;3.97;;;18.20;99.90;;;;;;5071353;28;20453;-68
2022/08/31 07:11:27;;;;;;;6.27;4.43;;;18.20;99.90;;;;;;5071692;28;20453;-68
2022/08/31 07:13:55;;;;;;;6.17;4.43;;;18.30;99.90;;;;;;5070792;28;20454;-68
2022/08/31 07:16:24;;;;;;;7.03;3.90;;;18.30;99.90;;;;;;5071519;28;20536;-68
2022/08/31 07:18:53;;;;;;;5.30;4.10;;;18.30;99.90;;;;;;5071156;28;20486;-68
2022/08/31 07:21:22;;;;;;;4.23;3.67;;;18.40;99.90;;;;;;5071743;28;20495;-68
2022/08/31 07:23:52;;;;;;;4.40;3.47;;;18.30;99.90;;;;;;5070654;28;20481;-68
2022/08/31 07:26:24;;;;;;;5.00;3.47;;;18.30;99.90;;;;;;5071435;28;20537;-68
2022/08/31 07:28:53;;;;;;;4.67;3.93;;;18.30;99.90;;;;;;5071101;28;20473;-68
2022/08/31 07:31:22;;;;;;;4.80;4.17;;;18.40;99.90;;;;;;5071580;28;20519;-68
2022/08/31 07:33:50;;;;;;;5.70;4.53;;;18.30;99.90;;;;;;5070522;28;20454;-69
2022/08/31 07:36:18;;;;;;;4.87;3.93;;;18.30;99.90;;;;;;5071411;28;20472;-68
2022/08/31 07:44:17;;;;;;;6.63;4.23;;;18.30;99.90;;;;;;5070761;28;20792;-69
2022/08/31 07:46:44;;;;;;;6.43;5.10;;;18.20;99.90;;;;;;5071165;28;20449;-69
2022/08/31 07:49:12;;;;;;;5.80;3.70;;;18.20;99.90;;;;;;5070757;28;20457;-68
2022/08/31 07:51:44;;;;;;;5.50;4.43;;;18.20;99.90;;;;;;5071520;28;20458;-68
2022/08/31 07:54:12;;;;;;;5.93;4.17;;;18.30;99.90;;;;;;5070283;28;20956;-68
2022/08/31 07:56:40;;;;;;;6.07;4.20;;;18.30;99.90;;;;;;5070825;28;20453;-69
2022/08/31 07:59:07;;;;;;;4.37;3.53;;;18.20;99.90;;;;;;5070375;28;20517;-69
2022/08/31 08:01:36;;;;;;;7.20;4.40;;;18.00;99.90;;;;;;5070649;28;20548;-68
2022/08/31 08:04:05;;;;;;;4.83;3.77;;;18.00;99.90;;;;;;5070048;28;20541;-68
2022/08/31 08:06:32;;;;;;;6.57;4.40;;;18.10;99.90;;;;;;5070898;28;20532;-69
2022/08/31 08:09:06;;;;;;;6.20;4.43;;;18.10;99.90;;;;;;5070423;28;20449;-68
2022/08/31 08:11:35;;;;;;;5.30;4.10;;;18.00;99.90;;;;;;5070548;28;20547;-69
2022/08/31 08:14:04;;;;;;;6.00;4.37;;;18.00;99.90;;;;;;5057241;28;20465;-69
2022/08/31 08:16:32;;;;;;;5.23;4.43;;;18.10;99.90;;;;;;5070839;28;20449;-69
2022/08/31 08:18:59;;;;;;;5.33;4.23;;;18.30;99.90;;;;;;5070131;28;20492;-69
2022/08/31 08:21:26;;;;;;;5.47;4.53;;;18.20;99.90;;;;;;5070673;28;20457;-69
2022/08/31 08:23:54;;;;;;;4.87;4.00;;;18.40;99.90;;;;;;5069540;28;20468;-69
2022/08/31 08:26:21;;;;;;;5.93;4.10;;;18.50;99.90;;;;;;5070524;28;20446;-69
2022/08/31 08:28:48;;;;;;;4.30;3.67;;;18.70;99.90;;;;;;5070508;28;20453;-70
2022/08/31 08:31:21;;;;;;;4.70;4.20;;;18.50;99.90;;;;;;5070248;28;20537;-70
2022/08/31 08:33:49;;;;;;;5.10;4.07;;;18.60;99.90;;;;;;5069276;28;20442;-70
2022/08/31 08:36:18;;;;;;;5.90;4.10;;;18.60;99.90;;;;;;5070384;28;20442;-70
2022/08/31 08:38:46;;;;;;;4.67;3.80;;;;;;;;;;5070442;28;20493;-70
2022/08/31 08:41:14;;;;;;;5.10;4.00;;;;;;;;;;5070230;28;20564;-70
2022/08/31 08:43:43;;;;;;;7.00;4.30;;;;;;;;;;5069872;28;20450;-70
2022/08/31 08:46:13;;;;;;;5.50;3.63;;;;;;;;;;5069957;28;20937;-70
2022/08/31 08:48:44;;;;;;;4.70;3.17;;;;;;;;;;5070584;28;20817;-70
2022/08/31 08:51:13;;;;;;;5.50;3.80;;;;;;;;;;5070090;28;20887;-70
2022/08/31 08:53:41;;;;;;;12.23;4.33;;;;;;;;;;5069896;28;20533;-71
2022/08/31 08:56:10;;;;;;;9.53;6.30;;;;;;;;;;5069755;28;20680;-71
2022/08/31 08:58:37;;;;;;;5.40;4.27;;;;;;;;;;5070043;28;20543;-71
2022/08/31 09:01:10;;;;;;;4.40;4.00;;;;;;;;;;5070023;28;20553;-71
2022/08/31 09:03:43;;;;;;;5.83;4.70;;;;;;;;;;5070388;28;20485;-71
2022/08/31 09:06:12;;;;;;;4.93;3.37;;;;;;;;;;5070018;28;20484;-71
2022/08/31 09:08:59;;;;;;;6.77;4.60;;;;;;;;;;5070024;28;20820;-71
2022/08/31 09:11:29;;;;;;;4.60;4.10;;;;;;;;;;5070359;28;20918;-71
2022/08/31 09:14:08;;;;;;;7.10;4.57;;;;;;;;;;5069356;28;20464;-71
2022/08/31 09:16:39;;;;;;;6.30;3.50;;;;;;;;;;5069909;28;20453;-71
2022/08/31 09:19:08;;;;;;;5.20;4.23;;;;;;;;;;5070008;28;20481;-71
2022/08/31 09:21:39;;;;;;;5.73;4.60;;;;;;;;;;5069797;28;20937;-71
2022/08/31 09:24:07;;;;;;;5.80;4.70;;;;;;;;;;5069284;28;20820;-72
2022/08/31 09:26:47;;;;;;;5.30;4.10;;;;;;;;;;5069638;28;20457;-71
2022/08/31 09:29:20;;;;;;;4.27;3.67;;;;;;;;;;5070023;28;20449;-71
2022/08/31 09:31:47;;;;;;;7.93;4.73;;;;;;;;;;5056897;28;20450;-72
2022/08/31 09:34:27;;;;;;;6.10;5.10;;;;;;;;;;5069503;28;20449;-72
2022/08/31 09:37:14;;;;;;;5.70;4.33;;;;;;;;;;5069715;28;20442;-71
2022/08/31 09:39:46;;;;;;;4.57;3.57;;;;;;;;;;5069523;28;20545;-73
2022/08/31 09:42:18;;;;;;;5.63;5.03;;;;;;;;;;5069428;28;20488;-72
2022/08/31 09:44:47;;;;;;;6.10;4.63;;;;;;;;;;5070138;28;20449;-73
2022/08/31 09:47:41;;;;;;;8.90;4.50;;;;;;;;;;5073332;28;20477;-72
2022/08/31 09:50:09;;;;;;;5.40;4.87;;;;;;;;;;5073162;28;20491;-73
2022/08/31 09:55:25;;;;;;;6.27;5.30;;;;;;;;;;5072891;28;20448;-73
2022/08/31 09:57:56;;;;;;;6.93;4.73;;;;;;;;;;5072709;28;20446;-73
2022/08/31 10:00:31;;;;;;;5.83;4.70;;;;;;;;;;5073265;28;20461;-73
2022/08/31 10:03:07;;;;;;;5.90;4.47;;;;;;;;;;5072660;28;20441;-74
2022/08/31 10:05:39;;;;;;;5.87;4.33;;;;;;;;;;5072716;28;20475;-73
2022/08/31 10:08:12;;;;;;;5.50;5.00;;;;;;;;;;5072963;28;20507;-73
2022/08/31 10:10:41;;;;;;;5.10;4.60;;;;;;;;;;5072966;28;20438;-73
2022/08/31 10:13:13;;;;;;;4.83;4.33;;;;;;;;;;5072350;28;20454;-73
2022/08/31 10:15:43;;;;;;;4.97;4.47;;;;;;;;;;5072748;28;20868;-73
2022/08/31 10:18:12;;;;;;;7.03;4.50;;;;;;;;;;5072258;28;20629;-73
2022/08/31 10:20:44;;;;;;;4.87;3.97;;;;;;;;;;5072762;28;20571;-73
2022/08/31 10:23:15;;;;;;;4.20;3.53;;;;;;;;;;5072461;28;20809;-73
2022/08/31 10:25:46;;;;;;;5.00;4.00;;;;;;;;;;5072494;28;21067;-73
2022/08/31 10:28:15;;;;;;;5.80;4.73;;;;;;;;;;5072882;28;20445;-73
2022/08/31 10:30:45;;;;;;;4.47;3.70;;;;;;;;;;5072762;28;20526;-73
2022/08/31 10:33:14;;;;;;;6.00;4.30;;;;;;;;;;5071976;28;20462;-74
2022/08/31 10:35:51;;;;;;;3.87;3.53;;;;;;;;;;5072216;28;20624;-73
2022/08/31 10:38:27;;;;;;;4.90;4.03;;;;;;;;;;5059808;28;20561;-73
2022/08/31 10:41:01;;;;;;;5.80;4.20;;;;;;;;;;5071921;28;20471;-73
2022/08/31 10:43:31;;;;;;;4.57;3.80;;;;;;;;;;5072401;28;20445;-73
2022/08/31 10:45:58;;;;;;;5.03;4.53;;;;;;;;;;5071837;28;20869;-73
2022/08/31 10:48:26;;;;;;;4.80;4.40;;;;;;;;;;5072192;28;20746;-73
2022/08/31 10:51:04;;;;;;;4.80;4.30;;;;;;;;;;5071574;28;20450;-72
2022/08/31 10:53:41;;;;;;;4.77;3.53;;;;;;;;;;5071608;28;20503;-74
2022/08/31 10:56:13;;;;;;;5.33;4.03;;;;;;;;;;5059070;28;20925;-73
2022/08/31 10:58:47;;;;;;;4.67;4.17;;;;;;;;;;5072035;28;20584;-74
2022/08/31 11:01:17;;;;;;;4.13;3.73;;;;;;;;;;5072046;28;20818;-73
2022/08/31 11:03:51;;;;;;;6.13;4.90;;;;;;;;;;5071556;28;20463;-73
2022/08/31 11:06:23;;;;;;;4.50;4.03;;;;;;;;;;5072185;28;20457;-73
2022/08/31 11:08:56;;;;;;;4.60;4.20;;;;;;;;;;5071820;28;20456;-74
2022/08/31 11:11:35;;;;;;;4.27;3.87;;;;;;;;;;5071721;28;20446;-73
2022/08/31 11:14:13;;;;;;;5.50;4.40;;;;;;;;;;5071294;28;20445;-73
2022/08/31 11:16:47;;;;;;;6.20;4.50;;;;;;;;;;5071870;28;20457;-74
2022/08/31 11:19:24;;;;;;;5.70;4.27;;;;;;;;;;5071767;28;20906;-73
2022/08/31 11:22:04;;;;;;;3.87;3.47;;;;;;;;;;5071442;28;20477;-73
2022/08/31 11:24:37;;;;;;;4.40;4.00;;;;;;;;;;5070725;28;20956;-73
2022/08/31 11:27:12;;;;;;;5.50;4.80;;;;;;;;;;5071075;28;20469;-73
2022/08/31 11:29:42;;;;;;;5.73;4.67;;;;;;;;;;5071586;28;20457;-73
2022/08/31 11:32:13;;;;;;;5.63;4.40;;;;;;;;;;5070979;28;20456;-73
2022/08/31 11:34:47;;;;;;;6.30;4.23;;;;;;;;;;5070860;28;20453;-73
2022/08/31 11:37:40;;;;;;;4.30;3.80;;;;;;;;;;5071317;28;20994;-73
2022/08/31 11:40:11;;;;;;;4.10;3.50;;;;;;;;;;5059821;28;20584;-73
2022/08/31 11:42:59;;;;;;;4.43;4.03;;;;;;;;;;5070963;28;20556;-73
2022/08/31 11:45:27;;;;;;;4.43;4.00;;;;;;;;;;5071265;28;20532;-73
2022/08/31 11:47:54;;;;;;;4.30;3.60;;;;;;;;;;5078223;28;20456;-72
2022/08/31 11:50:55;;;;;;;6.03;4.67;;;;;;;;;;5090082;28;20553;-73
2022/08/31 11:53:26;;;;;;;5.57;4.40;;;;;;;;;;5084262;28;20438;-72
2022/08/31 11:55:58;;;;;;;4.90;4.40;;;;;;;;;;5093574;28;20489;-72
2022/08/31 11:58:30;;;;;;;6.23;4.30;;;;;;;;;;5092075;28;20460;-73
2022/08/31 12:01:02;;;;;;;13.40;4.90;;;;;;;;;;5090616;28;20506;-73
2022/08/31 12:03:34;;;;;;;5.23;4.47;;;;;;;;;;5091573;28;20455;-73
2022/08/31 12:06:01;;;;;;;7.53;4.90;;;;;;;;;;5088723;28;20477;-73
2022/08/31 12:08:31;;;;;;;4.40;3.90;;;;;;;;;;5075959;28;20532;-73
2022/08/31 12:11:02;;;;;;;5.37;3.90;;;;;;;;;;5076311;28;20533;-73
2022/08/31 12:13:36;;;;;;;6.57;4.70;;;;;;;;;;5073034;28;20442;-74
2022/08/31 12:16:16;;;;;;;5.00;4.03;;;;;;;;;;5071316;28;20457;-74
2022/08/31 12:18:51;;;;;;;6.00;4.43;;;;;;;;;;5071158;28;20895;-74
2022/08/31 12:24:15;;;;;;;4.07;3.67;;;;;;;;;;5070331;28;20789;-74
2022/08/31 12:26:52;;;;;;;4.87;4.10;;;;;;;;;;5070760;28;20449;-74
2022/08/31 12:29:27;;;;;;;6.27;4.30;;;;;;;;;;5070822;28;20453;-73
2022/08/31 12:32:03;;;;;;;4.33;3.93;;;;;;;;;;5058388;28;20437;-74
2022/08/31 12:34:31;;;;;;;3.67;3.20;;;;;;;;;;5070616;28;20465;-74
2022/08/31 12:36:58;;;;;;;5.60;3.70;;;;;;;;;;5070362;28;20595;-73
2022/08/31 12:39:26;;;;;;;8.50;4.67;;;;;;;;;;5070717;28;20844;-74
2022/08/31 12:41:57;;;;;;;6.00;4.50;;;;;;;;;;5070120;28;20446;-73
2022/08/31 12:44:25;;;;;;;4.90;4.40;;;;;;;;;;5070349;28;20464;-73
2022/08/31 12:46:58;;;;;;;4.03;3.30;;;;;;;;;;5070201;28;20438;-75
2022/08/31 12:49:30;;;;;;;5.30;3.50;;;;;;;;;;5070603;28;20437;-73
2022/08/31 12:52:01;;;;;;;5.90;4.57;;;;;;;;;;5070334;28;20537;-73
2022/08/31 12:54:45;;;;;;;5.27;4.60;;;;;;;;;;5070084;28;20826;-73
2022/08/31 12:57:19;;;;;;;6.03;4.20;;;;;;;;;;5069844;28;20445;-74
2022/08/31 12:59:51;;;;;;;5.13;4.20;;;;;;;;;;5070502;28;20837;-73
2022/08/31 13:02:19;;;;;;;5.40;4.17;;;;;;;;;;5070266;28;20446;-73
2022/08/31 13:04:47;;;;;;;4.87;3.73;;;;;;;;;;5069967;28;20956;-73
2022/08/31 13:07:20;;;;;;;4.70;4.20;;;;;;;;;;5070449;28;20450;-73
2022/08/31 13:09:47;;;;;;;5.00;4.50;;;;;;;;;;5070523;28;20450;-73
2022/08/31 13:12:24;;;;;;;5.07;4.57;;;;;;;;;;5070024;28;20453;-73
2022/08/31 13:14:51;;;;;;;5.03;3.90;;;;;;;;;;5069600;28;20456;-72
2022/08/31 13:17:20;;;;;;;10.30;4.17;;;;;;;;;;5070532;28;20445;-73
2022/08/31 13:19:50;;;;;;;5.20;4.40;;;;;;;;;;5072399;28;20492;-73
2022/08/31 13:22:25;;;;;;;8.07;4.43;;;;;;;;;;5074170;28;20540;-73
2022/08/31 13:24:52;;;;;;;5.37;4.43;;;;;;;;;;5072823;28;20484;-73
2022/08/31 13:27:20;;;;;;;5.53;4.70;;;;;;;;;;5073724;28;20955;-73
2022/08/31 13:29:49;;;;;;;4.83;4.40;;;;;;;;;;5073831;28;20896;-73
2022/08/31 13:32:29;;;;;;;4.10;3.70;;;;;;;;;;5073933;28;20449;-73
2022/08/31 13:34:56;;;;;;;4.00;3.60;;;;;;;;;;5072865;28;20515;-73
2022/08/31 13:37:27;;;;;;;5.97;4.80;;;;;;;;;;5073765;28;20857;-73
2022/08/31 13:39:55;;;;;;;5.77;3.80;;;;;;;;;;5060595;28;20832;-73
2022/08/31 13:42:24;;;;;;;5.70;5.10;;;;;;;;;;5073633;28;20808;-73
2022/08/31 13:44:55;;;;;;;4.20;3.80;;;;;;;;;;5072744;28;20537;-73
2022/08/31 13:47:24;;;;;;;6.20;4.70;;;;;;;;;;5073556;28;20454;-73
2022/08/31 13:49:54;;;;;;;4.87;4.37;;;;;;;;;;5073232;28;20536;-73
2022/08/31 13:52:24;;;;;;;4.20;3.70;;;;;;;;;;5073612;28;20454;-74
2022/08/31 13:54:58;;;;;;;4.97;4.17;;;;;;;;;;5072759;28;20552;-73
2022/08/31 13:57:27;;;;;;;5.87;5.27;;;;;;;;;;5073102;28;20445;-74
2022/08/31 13:59:56;;;;;;;4.90;4.33;;;;;;;;;;5072842;28;20921;-73
2022/08/31 14:02:34;;;;;;;4.23;3.83;;;;;;;;;;5073135;28;20457;-74
2022/08/31 14:05:03;;;;;;;7.47;5.27;;;;;;;;;;5072641;28;20534;-73
2022/08/31 14:07:34;;;;;;;4.10;3.70;;;;;;;;;;5073272;28;20457;-73
2022/08/31 14:10:02;;;;;;;4.97;4.43;;;;;;;;;;5073042;28;20812;-73
2022/08/31 14:12:35;;;;;;;4.67;4.20;;;;;;;;;;5072869;28;20960;-73
2022/08/31 14:15:17;;;;;;;4.77;4.27;;;;;;;;;;5072170;28;20511;-73
2022/08/31 14:17:45;;;;;;;4.87;4.37;;;;;;;;;;5073470;28;20446;-74
2022/08/31 14:20:29;;;;;;;5.00;4.00;;;;;;;;;;5072697;28;20495;-73
2022/08/31 14:22:56;;;;;;;4.27;3.87;;;;;;;;;;5072470;28;20503;-73
2022/08/31 14:25:23;;;;;;;6.80;4.77;;;;;;;;;;5059224;28;20572;-74
2022/08/31 14:27:51;;;;;;;5.23;4.70;;;;;;;;;;5072692;28;20450;-72
2022/08/31 14:30:19;;;;;;;4.90;4.40;;;;;;;;;;5059300;28;20530;-73
2022/08/31 14:32:47;;;;;;;5.40;4.10;;;;;;;;;;5072652;28;20454;-73
2022/08/31 14:35:14;;;;;;;5.77;4.40;;;;;;;;;;5072267;28;20453;-73
2022/08/31 14:37:42;;;;;;;5.37;4.47;;;;;;;;;;5072759;28;20862;-73
2022/08/31 14:40:12;;;;;;;4.83;4.33;;;;;;;;;;5072586;28;20485;-74
2022/08/31 14:42:40;;;;;;;6.73;4.90;;;;;;;;;;5072617;28;20461;-72
2022/08/31 14:45:11;;;;;;;4.70;4.30;;;18.80;99.90;;;;;;5071935;28;20464;-72
2022/08/31 14:47:42;;;;;;;6.23;4.20;;;;;;;;;;5072342;28;20449;-72